sensor_id;sensor_type;location;lat;lon;timestamp;pressure;altitude;pressure_sealevel;temperature;humidity
21623;BME280;10973;46.706;12.340;2022-10-14T00:01:19;87634.72;;;10.06;55.36
21623;BME280;10973;46.706;12.340;2022-10-14T00:03:47;87636.91;;;10.00;55.24
21623;BME280;10973;46.706;12.340;2022-10-14T00:06:19;87627.47;;;9.96;55.10
21623;BME280;10973;46.706;12.340;2022-10-14T00:08:46;87629.69;;;9.94;55.04
21623;BME280;10973;46.706;12.340;2022-10-14T00:11:19;87628.19;;;9.93;54.94
21623;BME280;10973;46.706;12.340;2022-10-14T00:13:48;87633.81;;;9.91;55.18
21623;BME280;10973;46.706;12.340;2022-10-14T00:16:25;87637.13;;;9.85;55.23
21623;BME280;10973;46.706;12.340;2022-10-14T00:18:56;87640.47;;;9.82;55.39
21623;BME280;10973;46.706;12.340;2022-10-14T00:21:24;87634.78;;;9.76;55.29
21623;BME280;10973;46.706;12.340;2022-10-14T00:23:52;87639.63;;;9.74;55.35
21623;BME280;10973;46.706;12.340;2022-10-14T00:26:30;87638.09;;;9.73;55.33
21623;BME280;10973;46.706;12.340;2022-10-14T00:28:58;87643.34;;;9.70;55.47
21623;BME280;10973;46.706;12.340;2022-10-14T00:31:27;87648.59;;;9.70;55.55
21623;BME280;10973;46.706;12.340;2022-10-14T00:33:55;87638.78;;;9.67;55.88
21623;BME280;10973;46.706;12.340;2022-10-14T00:36:24;87642.53;;;9.66;55.71
21623;BME280;10973;46.706;12.340;2022-10-14T00:38:53;87636.16;;;9.67;55.92
21623;BME280;10973;46.706;12.340;2022-10-14T00:41:27;87621.16;;;9.71;56.09
21623;BME280;10973;46.706;12.340;2022-10-14T00:44:53;87617.44;;;9.75;56.15
21623;BME280;10973;46.706;12.340;2022-10-14T00:46:54;87612.59;;;9.77;56.18
21623;BME280;10973;46.706;12.340;2022-10-14T00:49:34;87606.63;;;9.80;56.26
21623;BME280;10973;46.706;12.340;2022-10-14T00:52:13;87619.81;;;9.84;56.35
21623;BME280;10973;46.706;12.340;2022-10-14T00:55:07;87621.63;;;9.80;56.26
21623;BME280;10973;46.706;12.340;2022-10-14T00:57:35;87624.28;;;9.80;56.24
21623;BME280;10973;46.706;12.340;2022-10-14T01:00:10;87622.78;;;9.79;55.80
21623;BME280;10973;46.706;12.340;2022-10-14T01:02:39;87616.34;;;9.76;56.09
21623;BME280;10973;46.706;12.340;2022-10-14T01:05:09;87616.28;;;9.73;56.28
21623;BME280;10973;46.706;12.340;2022-10-14T01:14:00;87585.09;;;9.71;56.41
21623;BME280;10973;46.706;12.340;2022-10-14T01:20:23;87597.06;;;9.65;56.69
21623;BME280;10973;46.706;12.340;2022-10-14T01:31:34;87582.75;;;9.66;57.02
21623;BME280;10973;46.706;12.340;2022-10-14T01:34:08;87588.41;;;9.65;57.04
21623;BME280;10973;46.706;12.340;2022-10-14T01:37:04;87582.38;;;9.64;57.22
21623;BME280;10973;46.706;12.340;2022-10-14T01:39:43;87582.00;;;9.66;57.41
21623;BME280;10973;46.706;12.340;2022-10-14T01:42:22;87581.25;;;9.65;57.46
21623;BME280;10973;46.706;12.340;2022-10-14T01:45:02;87578.66;;;9.69;56.94
21623;BME280;10973;46.706;12.340;2022-10-14T01:47:33;87582.44;;;9.71;56.94
21623;BME280;10973;46.706;12.340;2022-10-14T01:50:21;87574.56;;;9.71;57.09
21623;BME280;10973;46.706;12.340;2022-10-14T01:53:06;87573.78;;;9.71;57.50
21623;BME280;10973;46.706;12.340;2022-10-14T01:55:41;87576.06;;;9.72;57.61
21623;BME280;10973;46.706;12.340;2022-10-14T01:58:12;87570.84;;;9.76;57.80
21623;BME280;10973;46.706;12.340;2022-10-14T02:00:40;87569.78;;;9.80;57.80
21623;BME280;10973;46.706;12.340;2022-10-14T02:03:10;87566.44;;;9.87;57.77
21623;BME280;10973;46.706;12.340;2022-10-14T02:06:00;87578.50;;;9.88;57.92
21623;BME280;10973;46.706;12.340;2022-10-14T02:09:00;87570.94;;;9.86;57.93
21623;BME280;10973;46.706;12.340;2022-10-14T02:17:39;87563.44;;;9.88;58.27
21623;BME280;10973;46.706;12.340;2022-10-14T02:20:15;87571.75;;;9.90;58.44
21623;BME280;10973;46.706;12.340;2022-10-14T02:23:01;87564.22;;;9.89;58.79
21623;BME280;10973;46.706;12.340;2022-10-14T02:25:35;87568.75;;;9.92;58.63
21623;BME280;10973;46.706;12.340;2022-10-14T02:28:04;87571.78;;;9.94;58.91
21623;BME280;10973;46.706;12.340;2022-10-14T02:30:40;87572.94;;;9.96;58.99
21623;BME280;10973;46.706;12.340;2022-10-14T02:33:09;87575.59;;;10.00;58.92
21623;BME280;10973;46.706;12.340;2022-10-14T02:35:39;87581.63;;;10.00;58.99
21623;BME280;10973;46.706;12.340;2022-10-14T02:38:08;87572.63;;;10.01;58.69
21623;BME280;10973;46.706;12.340;2022-10-14T02:40:42;87575.25;;;10.01;59.16
21623;BME280;10973;46.706;12.340;2022-10-14T02:43:11;87563.97;;;10.01;59.42
21623;BME280;10973;46.706;12.340;2022-10-14T02:45:41;87569.22;;;10.01;59.46
21623;BME280;10973;46.706;12.340;2022-10-14T02:48:10;87561.34;;;10.01;59.63
21623;BME280;10973;46.706;12.340;2022-10-14T02:50:39;87565.44;;;9.98;59.97
21623;BME280;10973;46.706;12.340;2022-10-14T02:53:08;87568.06;;;9.98;60.10
21623;BME280;10973;46.706;12.340;2022-10-14T02:55:38;87561.28;;;9.97;59.71
21623;BME280;10973;46.706;12.340;2022-10-14T02:58:06;87565.44;;;9.98;59.79
21623;BME280;10973;46.706;12.340;2022-10-14T03:00:33;87563.19;;;9.97;60.11
21623;BME280;10973;46.706;12.340;2022-10-14T03:03:01;87564.69;;;9.98;60.20
21623;BME280;10973;46.706;12.340;2022-10-14T03:05:28;87563.91;;;9.97;60.58
21623;BME280;10973;46.706;12.340;2022-10-14T03:07:55;87567.38;;;10.01;60.75
21623;BME280;10973;46.706;12.340;2022-10-14T03:10:23;87568.50;;;10.04;60.92
21623;BME280;10973;46.706;12.340;2022-10-14T03:12:50;87574.50;;;10.04;60.99
21623;BME280;10973;46.706;12.340;2022-10-14T03:15:17;87572.28;;;10.06;60.99
21623;BME280;10973;46.706;12.340;2022-10-14T03:17:45;87565.91;;;10.07;61.11
21623;BME280;10973;46.706;12.340;2022-10-14T03:20:12;87577.59;;;10.10;61.17
21623;BME280;10973;46.706;12.340;2022-10-14T03:22:39;87572.75;;;10.12;61.32
21623;BME280;10973;46.706;12.340;2022-10-14T03:25:07;87567.50;;;10.16;61.03
21623;BME280;10973;46.706;12.340;2022-10-14T03:27:34;87560.00;;;10.18;61.23
21623;BME280;10973;46.706;12.340;2022-10-14T03:30:03;87572.06;;;10.19;61.16
21623;BME280;10973;46.706;12.340;2022-10-14T03:32:30;87560.75;;;10.18;61.18
21623;BME280;10973;46.706;12.340;2022-10-14T03:34:57;87569.44;;;10.22;61.09
21623;BME280;10973;46.706;12.340;2022-10-14T03:37:24;87562.28;;;10.19;61.27
21623;BME280;10973;46.706;12.340;2022-10-14T03:39:52;87560.75;;;10.18;61.25
21623;BME280;10973;46.706;12.340;2022-10-14T03:42:19;87567.91;;;10.18;61.25
21623;BME280;10973;46.706;12.340;2022-10-14T03:44:47;87560.38;;;10.16;61.60
21623;BME280;10973;46.706;12.340;2022-10-14T03:47:14;87564.53;;;10.17;61.21
21623;BME280;10973;46.706;12.340;2022-10-14T03:49:41;87555.88;;;10.17;61.26
21623;BME280;10973;46.706;12.340;2022-10-14T03:52:09;87553.59;;;10.15;61.08
21623;BME280;10973;46.706;12.340;2022-10-14T03:54:36;87553.19;;;10.13;61.22
21623;BME280;10973;46.706;12.340;2022-10-14T03:57:03;87544.47;;;10.09;61.34
21623;BME280;10973;46.706;12.340;2022-10-14T03:59:31;87544.06;;;10.03;61.20
21623;BME280;10973;46.706;12.340;2022-10-14T04:01:58;87540.28;;;10.01;61.23
21623;BME280;10973;46.706;12.340;2022-10-14T04:04:25;87541.44;;;10.03;61.31
21623;BME280;10973;46.706;12.340;2022-10-14T04:06:53;87541.78;;;10.02;61.08
21623;BME280;10973;46.706;12.340;2022-10-14T04:09:21;87536.88;;;10.00;61.24
21623;BME280;10973;46.706;12.340;2022-10-14T04:11:48;87538.34;;;9.98;61.44
21623;BME280;10973;46.706;12.340;2022-10-14T04:14:16;87532.31;;;9.97;61.48
21623;BME280;10973;46.706;12.340;2022-10-14T04:16:43;87538.72;;;9.96;61.31
21623;BME280;10973;46.706;12.340;2022-10-14T04:19:15;87525.91;;;9.95;61.11
21623;BME280;10973;46.706;12.340;2022-10-14T04:21:44;87536.09;;;9.96;61.07
21623;BME280;10973;46.706;12.340;2022-10-14T04:24:11;87529.28;;;9.92;61.14
21623;BME280;10973;46.706;12.340;2022-10-14T04:26:38;87531.53;;;9.90;61.34
21623;BME280;10973;46.706;12.340;2022-10-14T04:29:05;87526.97;;;9.87;61.36
21623;BME280;10973;46.706;12.340;2022-10-14T04:31:33;87528.50;;;9.88;61.45
21623;BME280;10973;46.706;12.340;2022-10-14T04:34:00;87534.09;;;9.86;61.57
21623;BME280;10973;46.706;12.340;2022-10-14T04:36:28;87528.06;;;9.82;61.41
21623;BME280;10973;46.706;12.340;2022-10-14T04:38:55;87527.66;;;9.80;61.58
21623;BME280;10973;46.706;12.340;2022-10-14T04:41:22;87526.50;;;9.78;61.63
21623;BME280;10973;46.706;12.340;2022-10-14T04:43:49;87534.78;;;9.76;61.53
21623;BME280;10973;46.706;12.340;2022-10-14T04:46:17;87523.84;;;9.74;61.81
21623;BME280;10973;46.706;12.340;2022-10-14T04:48:46;87530.22;;;9.73;61.62
21623;BME280;10973;46.706;12.340;2022-10-14T04:51:13;87524.97;;;9.73;61.47
21623;BME280;10973;46.706;12.340;2022-10-14T04:53:41;87521.16;;;9.71;61.62
21623;BME280;10973;46.706;12.340;2022-10-14T04:56:08;87518.16;;;9.72;61.50
21623;BME280;10973;46.706;12.340;2022-10-14T04:58:35;87518.94;;;9.73;61.41
21623;BME280;10973;46.706;12.340;2022-10-14T05:01:03;87516.28;;;9.73;61.62
21623;BME280;10973;46.706;12.340;2022-10-14T05:03:30;87516.63;;;9.68;61.21
21623;BME280;10973;46.706;12.340;2022-10-14T05:05:58;87516.59;;;9.64;60.99
21623;BME280;10973;46.706;12.340;2022-10-14T05:08:25;87511.66;;;9.59;61.34
21623;BME280;10973;46.706;12.340;2022-10-14T05:10:52;87510.88;;;9.59;60.95
21623;BME280;10973;46.706;12.340;2022-10-14T05:13:20;87517.66;;;9.56;61.04
21623;BME280;10973;46.706;12.340;2022-10-14T05:15:47;87518.75;;;9.55;61.11
21623;BME280;10973;46.706;12.340;2022-10-14T05:18:14;87517.19;;;9.51;60.79
21623;BME280;10973;46.706;12.340;2022-10-14T05:20:41;87522.06;;;9.49;60.46
21623;BME280;10973;46.706;12.340;2022-10-14T05:23:08;87514.53;;;9.47;60.77
21623;BME280;10973;46.706;12.340;2022-10-14T05:25:36;87511.16;;;9.47;60.57
21623;BME280;10973;46.706;12.340;2022-10-14T05:28:03;87511.09;;;9.43;60.48
21623;BME280;10973;46.706;12.340;2022-10-14T05:30:31;87514.06;;;9.38;60.61
21623;BME280;10973;46.706;12.340;2022-10-14T05:33:00;87520.03;;;9.35;60.83
21623;BME280;10973;46.706;12.340;2022-10-14T05:35:28;87517.00;;;9.33;60.65
21623;BME280;10973;46.706;12.340;2022-10-14T05:38:16;87524.91;;;9.33;60.77
21623;BME280;10973;46.706;12.340;2022-10-14T05:40:55;87524.13;;;9.32;60.87
21623;BME280;10973;46.706;12.340;2022-10-14T05:43:23;87516.63;;;9.31;60.92
21623;BME280;10973;46.706;12.340;2022-10-14T05:45:58;87512.47;;;9.30;60.88
21623;BME280;10973;46.706;12.340;2022-10-14T05:48:26;87521.06;;;9.27;60.83
21623;BME280;10973;46.706;12.340;2022-10-14T05:50:53;87525.88;;;9.21;60.79
21623;BME280;10973;46.706;12.340;2022-10-14T05:53:20;87519.88;;;9.21;60.95
21623;BME280;10973;46.706;12.340;2022-10-14T05:55:48;87531.53;;;9.23;60.88
21623;BME280;10973;46.706;12.340;2022-10-14T05:58:15;87526.66;;;9.22;61.16
21623;BME280;10973;46.706;12.340;2022-10-14T06:00:42;87524.06;;;9.25;61.21
21623;BME280;10973;46.706;12.340;2022-10-14T06:03:11;87524.81;;;9.26;61.09
21623;BME280;10973;46.706;12.340;2022-10-14T06:05:38;87520.31;;;9.26;61.11
21623;BME280;10973;46.706;12.340;2022-10-14T06:08:05;87519.19;;;9.27;61.46
21623;BME280;10973;46.706;12.340;2022-10-14T06:10:34;87513.59;;;9.29;61.68
21623;BME280;10973;46.706;12.340;2022-10-14T06:13:01;87513.25;;;9.34;61.88
21623;BME280;10973;46.706;12.340;2022-10-14T06:15:29;87522.34;;;9.40;62.04
21623;BME280;10973;46.706;12.340;2022-10-14T06:17:56;87520.88;;;9.43;61.77
21623;BME280;10973;46.706;12.340;2022-10-14T06:20:23;87524.31;;;9.47;61.84
21623;BME280;10973;46.706;12.340;2022-10-14T06:22:50;87522.84;;;9.53;61.90
21623;BME280;10973;46.706;12.340;2022-10-14T06:25:17;87532.31;;;9.57;61.87
21623;BME280;10973;46.706;12.340;2022-10-14T06:27:45;87528.59;;;9.62;61.79
21623;BME280;10973;46.706;12.340;2022-10-14T06:30:13;87528.66;;;9.65;61.75
21623;BME280;10973;46.706;12.340;2022-10-14T06:32:40;87533.16;;;9.68;62.01
21623;BME280;10973;46.706;12.340;2022-10-14T06:35:08;87538.13;;;9.73;62.32
21623;BME280;10973;46.706;12.340;2022-10-14T06:37:35;87537.75;;;9.75;62.35
21623;BME280;10973;46.706;12.340;2022-10-14T06:40:04;87544.94;;;9.81;62.20
21623;BME280;10973;46.706;12.340;2022-10-14T06:42:33;87541.28;;;9.89;61.89
21623;BME280;10973;46.706;12.340;2022-10-14T06:45:00;87538.28;;;9.91;62.31
21623;BME280;10973;46.706;12.340;2022-10-14T06:47:27;87542.47;;;9.95;62.33
21623;BME280;10973;46.706;12.340;2022-10-14T06:49:55;87544.78;;;10.00;62.45
21623;BME280;10973;46.706;12.340;2022-10-14T06:52:23;87546.31;;;10.05;62.31
21623;BME280;10973;46.706;12.340;2022-10-14T06:54:50;87550.50;;;10.10;62.34
21623;BME280;10973;46.706;12.340;2022-10-14T06:57:18;87545.69;;;10.15;62.42
21623;BME280;10973;46.706;12.340;2022-10-14T06:59:45;87546.50;;;10.23;62.36
21623;BME280;10973;46.706;12.340;2022-10-14T07:02:12;87548.41;;;10.26;62.40
21623;BME280;10973;46.706;12.340;2022-10-14T07:04:40;87545.47;;;10.31;62.37
21623;BME280;10973;46.706;12.340;2022-10-14T07:07:08;87548.88;;;10.38;62.13
21623;BME280;10973;46.706;12.340;2022-10-14T07:09:35;87551.19;;;10.43;62.19
21623;BME280;10973;46.706;12.340;2022-10-14T07:12:02;87551.97;;;10.47;62.25
21623;BME280;10973;46.706;12.340;2022-10-14T07:14:30;87549.00;;;10.49;62.26
21623;BME280;10973;46.706;12.340;2022-10-14T07:16:58;87542.97;;;10.52;62.27
21623;BME280;10973;46.706;12.340;2022-10-14T07:19:25;87543.78;;;10.56;62.36
21623;BME280;10973;46.706;12.340;2022-10-14T07:21:52;87537.75;;;10.59;62.50
21623;BME280;10973;46.706;12.340;2022-10-14T07:24:19;87548.69;;;10.61;62.33
21623;BME280;10973;46.706;12.340;2022-10-14T07:26:47;87552.13;;;10.65;62.46
21623;BME280;10973;46.706;12.340;2022-10-14T07:29:14;87547.59;;;10.65;62.33
21623;BME280;10973;46.706;12.340;2022-10-14T07:31:41;87552.16;;;10.68;62.34
21623;BME280;10973;46.706;12.340;2022-10-14T07:34:09;87553.28;;;10.71;62.43
21623;BME280;10973;46.706;12.340;2022-10-14T07:36:36;87550.72;;;10.78;62.15
21623;BME280;10973;46.706;12.340;2022-10-14T07:39:05;87562.47;;;10.88;62.28
21623;BME280;10973;46.706;12.340;2022-10-14T07:41:34;87560.97;;;10.94;62.09
21623;BME280;10973;46.706;12.340;2022-10-14T07:44:04;87565.97;;;11.06;61.97
21623;BME280;10973;46.706;12.340;2022-10-14T07:46:36;87556.94;;;11.10;62.17
21623;BME280;10973;46.706;12.340;2022-10-14T07:49:09;87560.41;;;11.21;62.12
21623;BME280;10973;46.706;12.340;2022-10-14T07:51:37;87555.91;;;11.29;62.15
21623;BME280;10973;46.706;12.340;2022-10-14T07:54:09;87555.19;;;11.35;61.71
21623;BME280;10973;46.706;12.340;2022-10-14T07:56:39;87551.84;;;11.42;61.36
21623;BME280;10973;46.706;12.340;2022-10-14T07:59:07;87549.25;;;11.49;60.91
21623;BME280;10973;46.706;12.340;2022-10-14T08:01:35;87545.09;;;11.55;60.88
21623;BME280;10973;46.706;12.340;2022-10-14T08:04:03;87540.25;;;11.61;60.66
21623;BME280;10973;46.706;12.340;2022-10-14T08:06:30;87540.63;;;11.66;60.41
21623;BME280;10973;46.706;12.340;2022-10-14T08:08:57;87543.31;;;11.70;60.54
21623;BME280;10973;46.706;12.340;2022-10-14T08:11:27;87543.69;;;11.75;60.30
21623;BME280;10973;46.706;12.340;2022-10-14T08:13:57;87537.69;;;11.82;60.35
21623;BME280;10973;46.706;12.340;2022-10-14T08:16:28;87543.75;;;11.89;60.04
21623;BME280;10973;46.706;12.340;2022-10-14T08:18:59;87533.56;;;11.91;60.35
21623;BME280;10973;46.706;12.340;2022-10-14T08:21:27;87533.59;;;12.02;60.28
21623;BME280;10973;46.706;12.340;2022-10-14T08:23:54;87524.19;;;12.08;60.20
21623;BME280;10973;46.706;12.340;2022-10-14T08:26:31;87525.69;;;12.16;59.79
21623;BME280;10973;46.706;12.340;2022-10-14T08:29:03;87524.94;;;12.15;58.95
21623;BME280;10973;46.706;12.340;2022-10-14T08:31:31;87517.78;;;12.20;58.96
21623;BME280;10973;46.706;12.340;2022-10-14T08:33:59;87506.81;;;12.25;58.86
21623;BME280;10973;46.706;12.340;2022-10-14T08:36:26;87508.34;;;12.33;58.85
21623;BME280;10973;46.706;12.340;2022-10-14T08:38:54;87514.41;;;12.40;59.07
21623;BME280;10973;46.706;12.340;2022-10-14T08:47:11;87496.66;;;12.55;59.38
21623;BME280;10973;46.706;12.340;2022-10-14T08:50:06;87499.31;;;12.62;58.70
21623;BME280;10973;46.706;12.340;2022-10-14T08:55:43;87504.22;;;12.74;57.65
21623;BME280;10973;46.706;12.340;2022-10-14T09:00:51;87503.44;;;12.87;57.24
21623;BME280;10973;46.706;12.340;2022-10-14T09:03:25;87508.31;;;12.93;56.67
21623;BME280;10973;46.706;12.340;2022-10-14T09:06:06;87509.84;;;13.01;56.51
21623;BME280;10973;46.706;12.340;2022-10-14T09:08:42;87505.69;;;13.07;56.27
21623;BME280;10973;46.706;12.340;2022-10-14T09:11:14;87504.56;;;13.15;55.87
21623;BME280;10973;46.706;12.340;2022-10-14T09:13:48;87502.28;;;13.17;55.27
21623;BME280;10973;46.706;12.340;2022-10-14T09:16:22;87504.53;;;13.22;55.14
21623;BME280;10973;46.706;12.340;2022-10-14T09:18:56;87506.41;;;13.28;55.47
21623;BME280;10973;46.706;12.340;2022-10-14T09:24:35;87505.22;;;13.43;55.21
21623;BME280;10973;46.706;12.340;2022-10-14T09:27:20;87497.31;;;13.40;55.22
21623;BME280;10973;46.706;12.340;2022-10-14T09:30:03;87501.44;;;13.48;54.87
21623;BME280;10973;46.706;12.340;2022-10-14T09:35:25;87493.78;;;13.68;54.67
21623;BME280;10973;46.706;12.340;2022-10-14T09:37:55;87494.53;;;13.75;54.59
21623;BME280;10973;46.706;12.340;2022-10-14T09:40:34;87488.81;;;13.80;54.19
21623;BME280;10973;46.706;12.340;2022-10-14T09:48:46;87483.41;;;14.05;54.35
21623;BME280;10973;46.706;12.340;2022-10-14T09:51:21;87481.84;;;14.11;53.96
21623;BME280;10973;46.706;12.340;2022-10-14T09:54:03;87472.72;;;14.15;53.44
21623;BME280;10973;46.706;12.340;2022-10-14T09:56:35;87467.06;;;14.17;52.96
21623;BME280;10973;46.706;12.340;2022-10-14T09:59:21;87470.75;;;14.26;53.01
21623;BME280;10973;46.706;12.340;2022-10-14T10:01:54;87470.69;;;14.41;52.22
21623;BME280;10973;46.706;12.340;2022-10-14T10:07:02;87470.91;;;14.64;52.06
21623;BME280;10973;46.706;12.340;2022-10-14T10:09:29;87464.41;;;14.72;51.92
21623;BME280;10973;46.706;12.340;2022-10-14T10:11:56;87471.19;;;14.76;51.29
21623;BME280;10973;46.706;12.340;2022-10-14T10:14:29;87465.84;;;14.80;49.77
21623;BME280;10973;46.706;12.340;2022-10-14T10:19:39;87463.72;;;15.05;50.06
21623;BME280;10973;46.706;12.340;2022-10-14T10:22:23;87456.06;;;15.11;49.74
21623;BME280;10973;46.706;12.340;2022-10-14T10:27:44;87457.09;;;15.24;48.20
21623;BME280;10973;46.706;12.340;2022-10-14T10:35:55;87449.50;;;15.22;49.88
21623;BME280;10973;46.706;12.340;2022-10-14T10:38:58;87447.22;;;15.24;50.66
21623;BME280;10973;46.706;12.340;2022-10-14T10:50:54;87425.69;;;15.56;47.37
21623;BME280;10973;46.706;12.340;2022-10-14T10:54:13;87417.13;;;15.72;47.42
21623;BME280;10973;46.706;12.340;2022-10-14T10:57:05;87412.03;;;16.11;47.17
21623;BME280;10973;46.706;12.340;2022-10-14T10:59:57;87408.44;;;16.97;45.24
21623;BME280;10973;46.706;12.340;2022-10-14T11:05:17;87407.16;;;19.07;39.50
21623;BME280;10973;46.706;12.340;2022-10-14T11:08:07;87398.31;;;20.25;37.08
21623;BME280;10973;46.706;12.340;2022-10-14T11:11:00;87388.13;;;20.96;35.44
21623;BME280;10973;46.706;12.340;2022-10-14T11:19:49;87377.66;;;21.70;34.61
21623;BME280;10973;46.706;12.340;2022-10-14T11:22:43;87385.69;;;21.36;34.82
21623;BME280;10973;46.706;12.340;2022-10-14T11:28:25;87382.69;;;20.49;37.02
21623;BME280;10973;46.706;12.340;2022-10-14T11:31:36;87381.16;;;20.35;38.27
21623;BME280;10973;46.706;12.340;2022-10-14T11:37:20;87369.44;;;21.64;34.05
21623;BME280;10973;46.706;12.340;2022-10-14T11:40:25;87367.44;;;22.51;32.09
21623;BME280;10973;46.706;12.340;2022-10-14T11:43:23;87363.09;;;23.33;31.26
21623;BME280;10973;46.706;12.340;2022-10-14T11:46:07;87365.44;;;23.80;29.40
21623;BME280;10973;46.706;12.340;2022-10-14T11:48:53;87353.47;;;24.08;28.91
21623;BME280;10973;46.706;12.340;2022-10-14T11:51:26;87350.56;;;24.39;28.93
21623;BME280;10973;46.706;12.340;2022-10-14T11:54:12;87351.94;;;24.26;28.01
21623;BME280;10973;46.706;12.340;2022-10-14T11:56:48;87356.13;;;23.99;28.27
21623;BME280;10973;46.706;12.340;2022-10-14T12:05:43;87349.56;;;23.91;29.36
21623;BME280;10973;46.706;12.340;2022-10-14T12:13:53;87344.34;;;22.94;33.09
21623;BME280;10973;46.706;12.340;2022-10-14T12:16:26;87349.47;;;22.61;32.35
21623;BME280;10973;46.706;12.340;2022-10-14T12:18:56;87343.78;;;22.28;33.65
21623;BME280;10973;46.706;12.340;2022-10-14T12:21:34;87338.13;;;21.83;35.74
21623;BME280;10973;46.706;12.340;2022-10-14T12:24:11;87338.03;;;21.30;36.72
21623;BME280;10973;46.706;12.340;2022-10-14T12:29:23;87336.63;;;20.54;38.41
21623;BME280;10973;46.706;12.340;2022-10-14T12:34:40;87328.78;;;19.97;39.65
21623;BME280;10973;46.706;12.340;2022-10-14T12:45:35;87329.03;;;20.27;36.62
21623;BME280;10973;46.706;12.340;2022-10-14T12:48:18;87324.63;;;20.21;35.37
21623;BME280;10973;46.706;12.340;2022-10-14T12:50:51;87333.09;;;20.19;37.08
21623;BME280;10973;46.706;12.340;2022-10-14T12:53:32;87330.66;;;20.25;36.74
21623;BME280;10973;46.706;12.340;2022-10-14T12:56:03;87324.53;;;20.24;37.11
21623;BME280;10973;46.706;12.340;2022-10-14T12:58:54;87321.00;;;20.15;37.23
21623;BME280;10973;46.706;12.340;2022-10-14T13:01:22;87318.22;;;20.06;37.86
21623;BME280;10973;46.706;12.340;2022-10-14T13:04:06;87327.81;;;19.90;37.72
21623;BME280;10973;46.706;12.340;2022-10-14T13:10:48;87315.97;;;19.50;40.00
21623;BME280;10973;46.706;12.340;2022-10-14T13:19:03;87310.06;;;19.14;40.95
21623;BME280;10973;46.706;12.340;2022-10-14T13:30:36;87311.63;;;18.83;41.89
21623;BME280;10973;46.706;12.340;2022-10-14T13:33:23;87299.09;;;18.80;42.31
21623;BME280;10973;46.706;12.340;2022-10-14T13:36:15;87292.34;;;18.75;42.97
21623;BME280;10973;46.706;12.340;2022-10-14T13:38:57;87298.03;;;18.77;42.17
21623;BME280;10973;46.706;12.340;2022-10-14T13:41:28;87285.09;;;18.76;41.95
21623;BME280;10973;46.706;12.340;2022-10-14T13:43:59;87288.94;;;18.75;41.04
21623;BME280;10973;46.706;12.340;2022-10-14T13:46:35;87287.53;;;18.70;40.85
21623;BME280;10973;46.706;12.340;2022-10-14T13:49:13;87290.38;;;18.63;41.13
21623;BME280;10973;46.706;12.340;2022-10-14T13:51:59;87282.47;;;18.60;41.65
21623;BME280;10973;46.706;12.340;2022-10-14T13:54:32;87277.94;;;18.57;41.90
21623;BME280;10973;46.706;12.340;2022-10-14T13:57:16;87278.97;;;18.46;41.15
21623;BME280;10973;46.706;12.340;2022-10-14T14:00:34;87268.13;;;18.37;40.61
21623;BME280;10973;46.706;12.340;2022-10-14T14:03:23;87277.13;;;18.27;40.41
21623;BME280;10973;46.706;12.340;2022-10-14T14:05:57;87274.34;;;18.31;40.43
21623;BME280;10973;46.706;12.340;2022-10-14T14:08:32;87277.53;;;18.26;39.47
21623;BME280;10973;46.706;12.340;2022-10-14T14:11:08;87272.22;;;18.26;39.61
21623;BME280;10973;46.706;12.340;2022-10-14T14:17:04;87275.69;;;18.23;39.13
21623;BME280;10973;46.706;12.340;2022-10-14T14:19:36;87274.94;;;18.22;39.06
21623;BME280;10973;46.706;12.340;2022-10-14T14:22:19;87269.44;;;18.13;38.71
21623;BME280;10973;46.706;12.340;2022-10-14T14:24:48;87280.53;;;18.12;39.38
21623;BME280;10973;46.706;12.340;2022-10-14T14:27:19;87282.53;;;18.08;39.65
21623;BME280;10973;46.706;12.340;2022-10-14T14:29:50;87282.59;;;18.04;40.04
21623;BME280;10973;46.706;12.340;2022-10-14T14:32:39;87287.28;;;18.00;40.40
21623;BME280;10973;46.706;12.340;2022-10-14T14:35:11;87280.09;;;17.97;40.82
21623;BME280;10973;46.706;12.340;2022-10-14T14:37:42;87291.69;;;17.91;40.46
21623;BME280;10973;46.706;12.340;2022-10-14T14:40:28;87290.69;;;17.85;41.23
21623;BME280;10973;46.706;12.340;2022-10-14T14:43:02;87287.34;;;17.80;41.32
21623;BME280;10973;46.706;12.340;2022-10-14T14:45:40;87281.41;;;17.73;41.53
21623;BME280;10973;46.706;12.340;2022-10-14T14:48:11;87283.81;;;17.67;41.99
21623;BME280;10973;46.706;12.340;2022-10-14T14:50:43;87285.88;;;17.60;42.04
21623;BME280;10973;46.706;12.340;2022-10-14T14:53:16;87282.56;;;17.56;42.53
21623;BME280;10973;46.706;12.340;2022-10-14T14:56:04;87284.72;;;17.41;42.24
21623;BME280;10973;46.706;12.340;2022-10-14T14:58:51;87281.72;;;17.39;42.80
21623;BME280;10973;46.706;12.340;2022-10-14T15:01:25;87290.53;;;17.36;42.95
21623;BME280;10973;46.706;12.340;2022-10-14T15:04:02;87280.34;;;17.31;42.94
21623;BME280;10973;46.706;12.340;2022-10-14T15:06:47;87283.91;;;17.25;43.07
21623;BME280;10973;46.706;12.340;2022-10-14T15:09:40;87279.44;;;17.22;43.07
21623;BME280;10973;46.706;12.340;2022-10-14T15:12:26;87283.72;;;17.16;43.27
21623;BME280;10973;46.706;12.340;2022-10-14T15:14:57;87291.69;;;17.16;43.53
21623;BME280;10973;46.706;12.340;2022-10-14T15:17:35;87289.06;;;16.96;43.25
21623;BME280;10973;46.706;12.340;2022-10-14T15:22:38;87305.06;;;16.92;43.57
21623;BME280;10973;46.706;12.340;2022-10-14T15:27:52;87307.53;;;16.83;43.92
21623;BME280;10973;46.706;12.340;2022-10-14T15:33:19;87306.75;;;16.63;44.78
21623;BME280;10973;46.706;12.340;2022-10-14T15:36:01;87304.97;;;16.57;44.63
21623;BME280;10973;46.706;12.340;2022-10-14T15:38:29;87306.13;;;16.56;44.97
21623;BME280;10973;46.706;12.340;2022-10-14T15:41:03;87298.97;;;16.53;45.25
21623;BME280;10973;46.706;12.340;2022-10-14T15:43:30;87309.28;;;16.47;45.43
21623;BME280;10973;46.706;12.340;2022-10-14T15:45:59;87307.50;;;16.40;45.60